»·PEaware :: N3610E KTOA-KSNA

N3610E :: KTOA-KSNA

FLIGHT INFORMATION

Flight Status: Arrived
Operator: Privately registered:
United States
More flights under this callsign
Pilot: John C. (12173)
Aircraft: CESSNA 172 SKYHAWK
(C172)
More flights by this aircraft type
Origin: KTOA Zamperini
United States
Destination: KSNA John Wayne-Orange Co
United States
More flights between these airports :: More routes between these airports
Route: +
File this flight plan on PilotEdge
Remarks:
Altitude:
(Current/Filed)
3,000ft
Speed:
(Current/Filed)
100kts
Departed: 30-Dec-17 07:47 PM
Arrived: 30-Dec-17 08:23 PM
Distance/Time
Traveled:
25nm/0:36
Distance/Time
To Go:
Arrived

Flight Plot

Page will automatically refresh every two minutes.


Map Options




Map Legend


Flown Route
Filed Route
Departure Airport
Arrival Airport
Navaid (VOR, NDB)
Fix

Horizontal Profiles

Position Reports

Time Latitude Longitude Heading Altitude Ground
Speed
30-Dec-17 19:52 33.735841 -118.563721 265 3069ft 102kts
30-Dec-17 19:53 33.740167 -118.590380 326 3084ft 108kts
30-Dec-17 19:54 33.752915 -118.567604 110 3093ft 108kts
30-Dec-17 19:55 33.743461 -118.527226 111 3067ft 107kts
30-Dec-17 19:56 33.736846 -118.498358 108 3028ft 107kts
30-Dec-17 19:57 33.728805 -118.463963 111 3002ft 107kts
30-Dec-17 19:58 33.721640 -118.429164 108 2982ft 107kts
30-Dec-17 19:59 33.713156 -118.394893 107 2961ft 107kts
30-Dec-17 20:00 33.705727 -118.360141 105 2945ft 107kts
30-Dec-17 20:01 33.697863 -118.325881 110 2941ft 106kts
30-Dec-17 20:02 33.690906 -118.291171 103 2946ft 108kts
30-Dec-17 20:03 33.683971 -118.256172 105 2974ft 108kts
30-Dec-17 20:04 33.675741 -118.221094 103 2998ft 110kts
30-Dec-17 20:05 33.667615 -118.185945 105 3027ft 110kts
30-Dec-17 20:06 33.658766 -118.151106 109 3059ft 110kts
30-Dec-17 20:07 33.658034 -118.116663 45 3051ft 108kts
30-Dec-17 20:08 33.678310 -118.090799 44 3007ft 106kts
30-Dec-17 20:09 33.697864 -118.064585 46 2927ft 106kts
30-Dec-17 20:10 33.717586 -118.038584 43 2900ft 104kts
30-Dec-17 20:11 33.737748 -118.013273 38 3007ft 106kts
30-Dec-17 20:12 33.759005 -117.988564 40 3066ft 107kts
30-Dec-17 20:13 33.780927 -117.964710 40 2990ft 108kts
30-Dec-17 20:14 33.803006 -117.940480 38 2926ft 109kts
30-Dec-17 20:15 33.822745 -117.913829 61 2976ft 108kts
30-Dec-17 20:16 33.837234 -117.882573 61 2973ft 108kts
30-Dec-17 20:17 33.851168 -117.850420 62 2952ft 108kts
30-Dec-17 20:18 33.865936 -117.818827 60 2947ft 109kts
30-Dec-17 20:19 33.880209 -117.786534 72 2951ft 110kts
30-Dec-17 20:20 33.875082 -117.750942 116 2945ft 110kts
30-Dec-17 20:21 33.852491 -117.754984 221 2999ft 100kts
30-Dec-17 20:22 33.827687 -117.769784 205 3118ft 101kts
30-Dec-17 20:23 33.803766 -117.786321 214 2941ft 101kts
30-Dec-17 20:24 33.780003 -117.803120 206 2289ft 100kts
30-Dec-17 20:25 33.756537 -117.818981 203 1664ft 96kts
30-Dec-17 20:26 33.732988 -117.832688 206 1152ft 92kts
30-Dec-17 20:27 33.710635 -117.846996 206 724ft 91kts
30-Dec-17 20:28 33.688650 -117.860743 204 268ft 74kts
30-Dec-17 20:29 33.677966 -117.867703 254 46ft 9kts
30-Dec-17 20:30 33.678123 -117.868603 253 47ft 10kts
30-Dec-17 20:31 33.676277 -117.870986 253 50ft 1kts
30-Dec-17 20:32 33.676277 -117.870986 253 50ft 1kts
30-Dec-17 20:33 33.676277 -117.870986 253 50ft 1kts
30-Dec-17 20:34 33.676275 -117.870994 252 50ft 1kts
30-Dec-17 20:35 33.676272 -117.871003 251 50ft 0kts
30-Dec-17 20:36 33.676272 -117.871003 251 50ft 0kts
30-Dec-17 20:37 33.676272 -117.871003 251 50ft 0kts
30-Dec-17 20:38 33.676272 -117.871003 251 50ft 0kts
30-Dec-17 20:39 33.676272 -117.871003 251 50ft 0kts
30-Dec-17 20:40 33.676272 -117.871003 251 50ft 0kts
30-Dec-17 20:41 33.676272 -117.871003 251 50ft 0kts
30-Dec-17 20:42 33.676272 -117.871003 251 50ft 0kts
30-Dec-17 20:43 33.676272 -117.871003 251 50ft 0kts
30-Dec-17 20:44 33.676272 -117.871003 251 50ft 0kts

Navigation Log

Ident Type
1. KTOA Airport
2. KSNA Airport